sensor_id;sensor_type;location;lat;lon;timestamp;P1;durP1;ratioP1;P2;durP2;ratioP2
10725;SDS011;5414;59.782;16.378;2022-12-18T00:01:38;17.97;;;12.00;;
10725;SDS011;5414;59.782;16.378;2022-12-18T00:04:04;20.37;;;11.73;;
10725;SDS011;5414;59.782;16.378;2022-12-18T00:06:31;18.43;;;11.70;;
10725;SDS011;5414;59.782;16.378;2022-12-18T00:08:58;20.87;;;11.37;;
10725;SDS011;5414;59.782;16.378;2022-12-18T00:11:25;21.90;;;10.97;;
10725;SDS011;5414;59.782;16.378;2022-12-18T00:13:52;18.27;;;11.20;;
10725;SDS011;5414;59.782;16.378;2022-12-18T00:16:19;20.70;;;11.83;;
10725;SDS011;5414;59.782;16.378;2022-12-18T00:18:46;20.97;;;11.43;;
10725;SDS011;5414;59.782;16.378;2022-12-18T00:21:13;19.80;;;11.53;;
10725;SDS011;5414;59.782;16.378;2022-12-18T00:23:40;18.83;;;11.33;;
10725;SDS011;5414;59.782;16.378;2022-12-18T00:26:07;20.43;;;11.20;;
10725;SDS011;5414;59.782;16.378;2022-12-18T00:28:33;18.33;;;12.00;;
10725;SDS011;5414;59.782;16.378;2022-12-18T00:31:09;18.07;;;11.80;;
10725;SDS011;5414;59.782;16.378;2022-12-18T00:33:36;19.47;;;11.20;;
10725;SDS011;5414;59.782;16.378;2022-12-18T00:36:06;19.30;;;11.23;;
10725;SDS011;5414;59.782;16.378;2022-12-18T00:38:33;18.97;;;10.80;;
10725;SDS011;5414;59.782;16.378;2022-12-18T00:40:59;20.70;;;11.93;;
10725;SDS011;5414;59.782;16.378;2022-12-18T00:43:25;18.33;;;11.83;;
10725;SDS011;5414;59.782;16.378;2022-12-18T00:45:51;19.13;;;11.77;;
10725;SDS011;5414;59.782;16.378;2022-12-18T00:48:17;22.33;;;11.80;;
10725;SDS011;5414;59.782;16.378;2022-12-18T00:50:43;19.70;;;11.83;;
10725;SDS011;5414;59.782;16.378;2022-12-18T00:53:09;20.50;;;11.50;;
10725;SDS011;5414;59.782;16.378;2022-12-18T00:55:36;19.27;;;10.87;;
10725;SDS011;5414;59.782;16.378;2022-12-18T00:58:02;21.00;;;11.33;;
10725;SDS011;5414;59.782;16.378;2022-12-18T01:00:28;18.27;;;10.60;;
10725;SDS011;5414;59.782;16.378;2022-12-18T01:02:54;17.53;;;10.93;;
10725;SDS011;5414;59.782;16.378;2022-12-18T01:05:20;18.40;;;10.53;;
10725;SDS011;5414;59.782;16.378;2022-12-18T01:07:46;20.33;;;10.90;;
10725;SDS011;5414;59.782;16.378;2022-12-18T01:10:13;17.60;;;10.27;;
10725;SDS011;5414;59.782;16.378;2022-12-18T01:12:39;20.27;;;12.07;;
10725;SDS011;5414;59.782;16.378;2022-12-18T01:15:06;18.93;;;11.87;;
10725;SDS011;5414;59.782;16.378;2022-12-18T01:17:32;18.47;;;11.37;;
10725;SDS011;5414;59.782;16.378;2022-12-18T01:19:58;18.10;;;10.93;;
10725;SDS011;5414;59.782;16.378;2022-12-18T01:22:24;20.00;;;10.83;;
10725;SDS011;5414;59.782;16.378;2022-12-18T01:24:50;19.43;;;11.80;;
10725;SDS011;5414;59.782;16.378;2022-12-18T01:27:16;18.30;;;11.33;;
10725;SDS011;5414;59.782;16.378;2022-12-18T01:29:43;17.80;;;10.73;;
10725;SDS011;5414;59.782;16.378;2022-12-18T01:32:09;20.50;;;11.63;;
10725;SDS011;5414;59.782;16.378;2022-12-18T01:34:36;18.27;;;10.57;;
10725;SDS011;5414;59.782;16.378;2022-12-18T01:37:03;15.13;;;10.17;;
10725;SDS011;5414;59.782;16.378;2022-12-18T01:39:29;21.03;;;11.67;;
10725;SDS011;5414;59.782;16.378;2022-12-18T01:41:55;18.57;;;10.37;;
10725;SDS011;5414;59.782;16.378;2022-12-18T01:47:58;17.37;;;10.97;;
10725;SDS011;5414;59.782;16.378;2022-12-18T01:49:59;17.33;;;11.07;;
10725;SDS011;5414;59.782;16.378;2022-12-18T01:52:27;19.80;;;10.80;;
10725;SDS011;5414;59.782;16.378;2022-12-18T01:54:54;15.63;;;10.33;;
10725;SDS011;5414;59.782;16.378;2022-12-18T01:57:21;18.00;;;10.87;;
10725;SDS011;5414;59.782;16.378;2022-12-18T01:59:49;18.33;;;10.73;;
10725;SDS011;5414;59.782;16.378;2022-12-18T02:02:16;15.63;;;10.50;;
10725;SDS011;5414;59.782;16.378;2022-12-18T02:04:42;20.70;;;10.87;;
10725;SDS011;5414;59.782;16.378;2022-12-18T02:09:40;18.23;;;11.27;;
10725;SDS011;5414;59.782;16.378;2022-12-18T02:12:13;19.70;;;11.37;;
10725;SDS011;5414;59.782;16.378;2022-12-18T02:14:48;22.97;;;12.20;;
10725;SDS011;5414;59.782;16.378;2022-12-18T02:19:51;21.93;;;12.43;;
10725;SDS011;5414;59.782;16.378;2022-12-18T02:22:25;20.80;;;12.53;;
10725;SDS011;5414;59.782;16.378;2022-12-18T02:27:37;22.00;;;13.10;;
10725;SDS011;5414;59.782;16.378;2022-12-18T02:30:05;22.93;;;13.23;;
10725;SDS011;5414;59.782;16.378;2022-12-18T02:32:33;20.57;;;12.50;;
10725;SDS011;5414;59.782;16.378;2022-12-18T02:35:00;21.43;;;12.60;;
10725;SDS011;5414;59.782;16.378;2022-12-18T02:37:26;24.33;;;13.43;;
10725;SDS011;5414;59.782;16.378;2022-12-18T02:39:54;19.87;;;12.70;;
10725;SDS011;5414;59.782;16.378;2022-12-18T02:42:21;21.93;;;12.73;;
10725;SDS011;5414;59.782;16.378;2022-12-18T02:44:48;22.80;;;13.10;;
10725;SDS011;5414;59.782;16.378;2022-12-18T02:47:16;21.40;;;12.17;;
10725;SDS011;5414;59.782;16.378;2022-12-18T02:57:18;22.77;;;13.80;;
10725;SDS011;5414;59.782;16.378;2022-12-18T03:02:33;24.07;;;15.13;;
10725;SDS011;5414;59.782;16.378;2022-12-18T03:05:03;25.53;;;13.90;;
10725;SDS011;5414;59.782;16.378;2022-12-18T03:07:38;24.27;;;13.90;;
10725;SDS011;5414;59.782;16.378;2022-12-18T03:10:05;29.43;;;15.23;;
10725;SDS011;5414;59.782;16.378;2022-12-18T03:12:34;25.93;;;15.63;;
10725;SDS011;5414;59.782;16.378;2022-12-18T03:15:06;30.27;;;16.27;;
10725;SDS011;5414;59.782;16.378;2022-12-18T03:17:33;27.43;;;15.60;;
10725;SDS011;5414;59.782;16.378;2022-12-18T03:20:04;23.43;;;14.60;;
10725;SDS011;5414;59.782;16.378;2022-12-18T03:22:32;26.30;;;15.37;;
10725;SDS011;5414;59.782;16.378;2022-12-18T03:24:59;25.20;;;15.20;;
10725;SDS011;5414;59.782;16.378;2022-12-18T03:27:26;28.87;;;15.50;;
10725;SDS011;5414;59.782;16.378;2022-12-18T03:29:56;25.73;;;15.70;;
10725;SDS011;5414;59.782;16.378;2022-12-18T03:32:33;26.73;;;15.30;;
10725;SDS011;5414;59.782;16.378;2022-12-18T03:35:00;26.73;;;16.03;;
10725;SDS011;5414;59.782;16.378;2022-12-18T03:37:31;25.47;;;14.27;;
10725;SDS011;5414;59.782;16.378;2022-12-18T03:39:57;28.23;;;16.53;;
10725;SDS011;5414;59.782;16.378;2022-12-18T03:42:32;29.07;;;16.27;;
10725;SDS011;5414;59.782;16.378;2022-12-18T03:45:07;25.97;;;16.03;;
10725;SDS011;5414;59.782;16.378;2022-12-18T03:47:36;28.67;;;15.87;;
10725;SDS011;5414;59.782;16.378;2022-12-18T03:50:21;26.63;;;15.47;;
10725;SDS011;5414;59.782;16.378;2022-12-18T03:52:59;29.03;;;16.13;;
10725;SDS011;5414;59.782;16.378;2022-12-18T03:55:26;27.67;;;17.23;;
10725;SDS011;5414;59.782;16.378;2022-12-18T03:57:53;28.27;;;16.33;;
10725;SDS011;5414;59.782;16.378;2022-12-18T04:00:19;24.73;;;16.20;;
10725;SDS011;5414;59.782;16.378;2022-12-18T04:02:49;30.40;;;16.90;;
10725;SDS011;5414;59.782;16.378;2022-12-18T04:05:16;27.13;;;16.23;;
10725;SDS011;5414;59.782;16.378;2022-12-18T04:07:44;28.40;;;16.57;;
10725;SDS011;5414;59.782;16.378;2022-12-18T04:10:10;29.70;;;15.57;;
10725;SDS011;5414;59.782;16.378;2022-12-18T04:12:37;32.47;;;17.30;;
10725;SDS011;5414;59.782;16.378;2022-12-18T04:15:04;30.80;;;17.53;;
10725;SDS011;5414;59.782;16.378;2022-12-18T04:17:30;28.90;;;16.43;;
10725;SDS011;5414;59.782;16.378;2022-12-18T04:19:56;30.27;;;16.77;;
10725;SDS011;5414;59.782;16.378;2022-12-18T04:22:22;27.10;;;16.87;;
10725;SDS011;5414;59.782;16.378;2022-12-18T04:24:48;28.60;;;16.40;;
10725;SDS011;5414;59.782;16.378;2022-12-18T04:27:14;31.10;;;17.10;;
10725;SDS011;5414;59.782;16.378;2022-12-18T04:29:40;31.20;;;17.37;;
10725;SDS011;5414;59.782;16.378;2022-12-18T04:32:07;29.13;;;16.57;;
10725;SDS011;5414;59.782;16.378;2022-12-18T04:34:33;27.80;;;16.93;;
10725;SDS011;5414;59.782;16.378;2022-12-18T04:36:59;31.40;;;17.23;;
10725;SDS011;5414;59.782;16.378;2022-12-18T04:39:25;29.47;;;16.57;;
10725;SDS011;5414;59.782;16.378;2022-12-18T04:41:51;27.67;;;16.73;;
10725;SDS011;5414;59.782;16.378;2022-12-18T04:44:17;29.10;;;17.07;;
10725;SDS011;5414;59.782;16.378;2022-12-18T04:46:43;26.83;;;16.23;;
10725;SDS011;5414;59.782;16.378;2022-12-18T04:49:09;28.57;;;15.87;;
10725;SDS011;5414;59.782;16.378;2022-12-18T04:51:36;28.00;;;16.00;;
10725;SDS011;5414;59.782;16.378;2022-12-18T04:54:02;28.73;;;16.70;;
10725;SDS011;5414;59.782;16.378;2022-12-18T04:56:29;26.77;;;15.77;;
10725;SDS011;5414;59.782;16.378;2022-12-18T04:58:56;27.97;;;14.77;;
10725;SDS011;5414;59.782;16.378;2022-12-18T05:01:22;25.67;;;16.03;;
10725;SDS011;5414;59.782;16.378;2022-12-18T05:03:48;27.63;;;16.07;;
10725;SDS011;5414;59.782;16.378;2022-12-18T05:06:14;25.23;;;15.53;;
10725;SDS011;5414;59.782;16.378;2022-12-18T05:08:40;26.90;;;16.73;;
10725;SDS011;5414;59.782;16.378;2022-12-18T05:11:07;24.87;;;16.17;;
10725;SDS011;5414;59.782;16.378;2022-12-18T05:13:33;29.20;;;16.07;;
10725;SDS011;5414;59.782;16.378;2022-12-18T05:16:00;28.03;;;16.37;;
10725;SDS011;5414;59.782;16.378;2022-12-18T05:18:26;27.90;;;15.47;;
10725;SDS011;5414;59.782;16.378;2022-12-18T05:20:53;24.93;;;15.80;;
10725;SDS011;5414;59.782;16.378;2022-12-18T05:23:19;28.63;;;15.57;;
10725;SDS011;5414;59.782;16.378;2022-12-18T05:25:52;27.83;;;15.93;;
10725;SDS011;5414;59.782;16.378;2022-12-18T05:28:19;27.80;;;15.10;;
10725;SDS011;5414;59.782;16.378;2022-12-18T05:30:52;29.37;;;15.93;;
10725;SDS011;5414;59.782;16.378;2022-12-18T05:33:18;24.17;;;15.07;;
10725;SDS011;5414;59.782;16.378;2022-12-18T05:35:49;27.47;;;14.50;;
10725;SDS011;5414;59.782;16.378;2022-12-18T05:38:15;24.00;;;15.30;;
10725;SDS011;5414;59.782;16.378;2022-12-18T05:40:42;27.60;;;15.73;;
10725;SDS011;5414;59.782;16.378;2022-12-18T05:43:09;26.43;;;15.77;;
10725;SDS011;5414;59.782;16.378;2022-12-18T05:45:38;22.77;;;14.70;;
10725;SDS011;5414;59.782;16.378;2022-12-18T05:48:04;25.10;;;14.80;;
10725;SDS011;5414;59.782;16.378;2022-12-18T05:50:30;24.90;;;14.97;;
10725;SDS011;5414;59.782;16.378;2022-12-18T05:52:59;24.23;;;14.37;;
10725;SDS011;5414;59.782;16.378;2022-12-18T05:55:25;21.07;;;13.50;;
10725;SDS011;5414;59.782;16.378;2022-12-18T05:57:51;22.20;;;14.13;;
10725;SDS011;5414;59.782;16.378;2022-12-18T06:00:17;20.27;;;13.97;;
10725;SDS011;5414;59.782;16.378;2022-12-18T06:02:46;23.27;;;13.17;;
10725;SDS011;5414;59.782;16.378;2022-12-18T06:05:12;26.13;;;14.10;;
10725;SDS011;5414;59.782;16.378;2022-12-18T06:07:38;20.87;;;12.73;;
10725;SDS011;5414;59.782;16.378;2022-12-18T06:10:04;21.07;;;12.90;;
10725;SDS011;5414;59.782;16.378;2022-12-18T06:12:30;21.03;;;13.47;;
10725;SDS011;5414;59.782;16.378;2022-12-18T06:14:58;22.20;;;13.87;;
10725;SDS011;5414;59.782;16.378;2022-12-18T06:17:27;18.27;;;13.13;;
10725;SDS011;5414;59.782;16.378;2022-12-18T06:19:53;23.83;;;14.37;;
10725;SDS011;5414;59.782;16.378;2022-12-18T06:22:19;23.47;;;14.20;;
10725;SDS011;5414;59.782;16.378;2022-12-18T06:24:46;25.67;;;15.27;;
10725;SDS011;5414;59.782;16.378;2022-12-18T06:27:12;21.43;;;13.20;;
10725;SDS011;5414;59.782;16.378;2022-12-18T06:29:38;22.10;;;13.57;;
10725;SDS011;5414;59.782;16.378;2022-12-18T06:32:04;24.23;;;14.63;;
10725;SDS011;5414;59.782;16.378;2022-12-18T06:34:30;21.50;;;13.83;;
10725;SDS011;5414;59.782;16.378;2022-12-18T06:36:56;26.77;;;14.40;;
10725;SDS011;5414;59.782;16.378;2022-12-18T06:39:22;23.97;;;13.63;;
10725;SDS011;5414;59.782;16.378;2022-12-18T06:41:48;24.50;;;14.57;;
10725;SDS011;5414;59.782;16.378;2022-12-18T06:44:14;20.97;;;13.03;;
10725;SDS011;5414;59.782;16.378;2022-12-18T06:46:40;22.60;;;13.80;;
10725;SDS011;5414;59.782;16.378;2022-12-18T06:49:06;25.63;;;15.60;;
10725;SDS011;5414;59.782;16.378;2022-12-18T06:51:34;23.67;;;13.93;;
10725;SDS011;5414;59.782;16.378;2022-12-18T06:54:00;25.47;;;14.23;;
10725;SDS011;5414;59.782;16.378;2022-12-18T06:56:26;24.93;;;15.23;;
10725;SDS011;5414;59.782;16.378;2022-12-18T06:58:52;25.17;;;15.10;;
10725;SDS011;5414;59.782;16.378;2022-12-18T07:01:19;25.83;;;15.10;;
10725;SDS011;5414;59.782;16.378;2022-12-18T07:03:45;24.13;;;14.17;;
10725;SDS011;5414;59.782;16.378;2022-12-18T07:06:13;24.07;;;14.43;;
10725;SDS011;5414;59.782;16.378;2022-12-18T07:08:39;25.57;;;14.67;;
10725;SDS011;5414;59.782;16.378;2022-12-18T07:11:05;28.93;;;15.50;;
10725;SDS011;5414;59.782;16.378;2022-12-18T07:13:32;31.80;;;15.87;;
10725;SDS011;5414;59.782;16.378;2022-12-18T07:16:08;26.90;;;16.17;;
10725;SDS011;5414;59.782;16.378;2022-12-18T07:18:34;26.43;;;15.93;;
10725;SDS011;5414;59.782;16.378;2022-12-18T07:21:04;23.17;;;13.87;;
10725;SDS011;5414;59.782;16.378;2022-12-18T07:23:31;25.33;;;15.37;;
10725;SDS011;5414;59.782;16.378;2022-12-18T07:26:08;25.40;;;15.27;;
10725;SDS011;5414;59.782;16.378;2022-12-18T07:28:35;33.63;;;24.87;;
10725;SDS011;5414;59.782;16.378;2022-12-18T07:31:05;25.43;;;15.93;;
10725;SDS011;5414;59.782;16.378;2022-12-18T07:33:32;29.00;;;16.23;;
10725;SDS011;5414;59.782;16.378;2022-12-18T07:35:58;25.83;;;15.43;;
10725;SDS011;5414;59.782;16.378;2022-12-18T07:38:25;21.87;;;14.57;;
10725;SDS011;5414;59.782;16.378;2022-12-18T07:40:51;24.27;;;15.60;;
10725;SDS011;5414;59.782;16.378;2022-12-18T07:43:17;23.63;;;14.43;;
10725;SDS011;5414;59.782;16.378;2022-12-18T07:45:43;25.50;;;15.07;;
10725;SDS011;5414;59.782;16.378;2022-12-18T07:48:10;23.83;;;14.33;;
10725;SDS011;5414;59.782;16.378;2022-12-18T07:50:36;25.43;;;14.77;;
10725;SDS011;5414;59.782;16.378;2022-12-18T07:53:02;23.67;;;13.77;;
10725;SDS011;5414;59.782;16.378;2022-12-18T07:55:30;22.70;;;13.80;;
10725;SDS011;5414;59.782;16.378;2022-12-18T07:57:56;23.53;;;14.20;;
10725;SDS011;5414;59.782;16.378;2022-12-18T08:00:22;23.07;;;13.77;;
10725;SDS011;5414;59.782;16.378;2022-12-18T08:02:49;25.73;;;15.40;;
10725;SDS011;5414;59.782;16.378;2022-12-18T08:05:15;22.13;;;13.87;;
10725;SDS011;5414;59.782;16.378;2022-12-18T08:07:41;23.67;;;13.77;;
10725;SDS011;5414;59.782;16.378;2022-12-18T08:10:07;25.03;;;14.10;;
10725;SDS011;5414;59.782;16.378;2022-12-18T08:12:33;23.23;;;14.23;;
10725;SDS011;5414;59.782;16.378;2022-12-18T08:14:59;24.57;;;15.10;;
10725;SDS011;5414;59.782;16.378;2022-12-18T08:17:25;19.77;;;15.03;;
10725;SDS011;5414;59.782;16.378;2022-12-18T08:19:51;23.80;;;14.67;;
10725;SDS011;5414;59.782;16.378;2022-12-18T08:22:17;23.03;;;14.33;;
10725;SDS011;5414;59.782;16.378;2022-12-18T08:24:44;22.87;;;13.43;;
10725;SDS011;5414;59.782;16.378;2022-12-18T08:27:11;20.47;;;13.47;;
10725;SDS011;5414;59.782;16.378;2022-12-18T08:29:36;21.37;;;13.90;;
10725;SDS011;5414;59.782;16.378;2022-12-18T08:32:03;18.80;;;13.20;;
10725;SDS011;5414;59.782;16.378;2022-12-18T08:34:29;21.10;;;14.03;;
10725;SDS011;5414;59.782;16.378;2022-12-18T08:36:55;21.37;;;13.70;;
10725;SDS011;5414;59.782;16.378;2022-12-18T08:39:21;21.13;;;14.53;;
10725;SDS011;5414;59.782;16.378;2022-12-18T08:41:47;20.53;;;15.37;;
10725;SDS011;5414;59.782;16.378;2022-12-18T08:44:33;18.53;;;12.63;;
10725;SDS011;5414;59.782;16.378;2022-12-18T08:47:02;19.53;;;14.53;;
10725;SDS011;5414;59.782;16.378;2022-12-18T08:49:28;21.37;;;13.50;;
10725;SDS011;5414;59.782;16.378;2022-12-18T08:51:55;23.90;;;17.67;;
10725;SDS011;5414;59.782;16.378;2022-12-18T08:54:22;18.10;;;12.60;;
10725;SDS011;5414;59.782;16.378;2022-12-18T08:56:48;21.30;;;13.13;;
10725;SDS011;5414;59.782;16.378;2022-12-18T08:59:15;18.90;;;12.07;;
10725;SDS011;5414;59.782;16.378;2022-12-18T09:01:41;18.13;;;12.60;;
10725;SDS011;5414;59.782;16.378;2022-12-18T09:04:07;23.90;;;17.27;;
10725;SDS011;5414;59.782;16.378;2022-12-18T09:06:34;24.20;;;17.13;;
10725;SDS011;5414;59.782;16.378;2022-12-18T09:09:00;17.20;;;11.87;;
10725;SDS011;5414;59.782;16.378;2022-12-18T09:11:27;24.27;;;16.87;;
10725;SDS011;5414;59.782;16.378;2022-12-18T09:13:54;24.43;;;17.43;;
10725;SDS011;5414;59.782;16.378;2022-12-18T09:16:20;23.93;;;19.50;;
10725;SDS011;5414;59.782;16.378;2022-12-18T09:18:47;20.37;;;14.97;;
10725;SDS011;5414;59.782;16.378;2022-12-18T09:21:15;21.30;;;13.50;;
10725;SDS011;5414;59.782;16.378;2022-12-18T09:23:42;20.87;;;13.00;;
10725;SDS011;5414;59.782;16.378;2022-12-18T09:26:08;17.60;;;12.57;;
10725;SDS011;5414;59.782;16.378;2022-12-18T09:28:34;16.80;;;11.87;;
10725;SDS011;5414;59.782;16.378;2022-12-18T09:31:03;22.30;;;15.83;;
10725;SDS011;5414;59.782;16.378;2022-12-18T09:33:29;25.83;;;21.80;;
10725;SDS011;5414;59.782;16.378;2022-12-18T09:35:55;20.67;;;14.87;;
10725;SDS011;5414;59.782;16.378;2022-12-18T09:38:21;14.77;;;11.03;;
10725;SDS011;5414;59.782;16.378;2022-12-18T09:40:52;17.53;;;11.43;;
10725;SDS011;5414;59.782;16.378;2022-12-18T09:43:22;14.53;;;11.33;;
10725;SDS011;5414;59.782;16.378;2022-12-18T09:45:51;20.50;;;14.57;;
10725;SDS011;5414;59.782;16.378;2022-12-18T09:48:19;20.40;;;18.13;;
10725;SDS011;5414;59.782;16.378;2022-12-18T09:50:47;18.10;;;13.07;;
10725;SDS011;5414;59.782;16.378;2022-12-18T09:53:19;11.90;;;9.67;;
10725;SDS011;5414;59.782;16.378;2022-12-18T09:55:46;13.97;;;9.97;;
10725;SDS011;5414;59.782;16.378;2022-12-18T09:58:30;13.57;;;9.07;;
10725;SDS011;5414;59.782;16.378;2022-12-18T10:00:59;12.10;;;8.40;;
10725;SDS011;5414;59.782;16.378;2022-12-18T10:03:25;16.83;;;9.43;;
10725;SDS011;5414;59.782;16.378;2022-12-18T10:26:52;12.63;;;8.20;;
10725;SDS011;5414;59.782;16.378;2022-12-18T10:29:18;14.87;;;8.07;;
10725;SDS011;5414;59.782;16.378;2022-12-18T10:31:46;11.47;;;7.10;;
10725;SDS011;5414;59.782;16.378;2022-12-18T10:34:13;14.20;;;7.80;;
10725;SDS011;5414;59.782;16.378;2022-12-18T10:36:40;13.23;;;8.50;;
10725;SDS011;5414;59.782;16.378;2022-12-18T10:39:24;11.97;;;7.63;;
10725;SDS011;5414;59.782;16.378;2022-12-18T10:42:09;13.13;;;7.93;;
10725;SDS011;5414;59.782;16.378;2022-12-18T10:44:36;11.50;;;7.83;;
10725;SDS011;5414;59.782;16.378;2022-12-18T10:47:02;13.33;;;7.87;;
10725;SDS011;5414;59.782;16.378;2022-12-18T10:49:30;16.87;;;8.90;;
10725;SDS011;5414;59.782;16.378;2022-12-18T10:54:52;14.13;;;8.80;;
10725;SDS011;5414;59.782;16.378;2022-12-18T10:59:57;17.00;;;9.00;;
10725;SDS011;5414;59.782;16.378;2022-12-18T11:02:41;15.37;;;8.37;;
10725;SDS011;5414;59.782;16.378;2022-12-18T11:05:22;14.27;;;8.80;;
10725;SDS011;5414;59.782;16.378;2022-12-18T11:07:49;13.87;;;7.53;;
10725;SDS011;5414;59.782;16.378;2022-12-18T11:10:19;12.33;;;7.53;;
10725;SDS011;5414;59.782;16.378;2022-12-18T11:12:45;10.87;;;7.20;;
10725;SDS011;5414;59.782;16.378;2022-12-18T11:15:15;12.37;;;7.10;;
10725;SDS011;5414;59.782;16.378;2022-12-18T11:17:42;10.63;;;7.40;;
10725;SDS011;5414;59.782;16.378;2022-12-18T11:22:54;12.87;;;6.90;;
10725;SDS011;5414;59.782;16.378;2022-12-18T11:25:21;14.90;;;7.27;;
10725;SDS011;5414;59.782;16.378;2022-12-18T11:27:58;12.40;;;6.50;;
10725;SDS011;5414;59.782;16.378;2022-12-18T11:30:26;11.47;;;6.63;;
10725;SDS011;5414;59.782;16.378;2022-12-18T11:32:57;11.17;;;6.00;;
10725;SDS011;5414;59.782;16.378;2022-12-18T11:38:00;11.57;;;6.70;;
10725;SDS011;5414;59.782;16.378;2022-12-18T11:40:33;13.03;;;6.33;;
10725;SDS011;5414;59.782;16.378;2022-12-18T11:45:35;12.13;;;6.33;;
10725;SDS011;5414;59.782;16.378;2022-12-18T11:50:41;14.37;;;6.73;;
10725;SDS011;5414;59.782;16.378;2022-12-18T11:53:11;13.27;;;5.63;;
10725;SDS011;5414;59.782;16.378;2022-12-18T11:56:23;12.60;;;5.67;;
10725;SDS011;5414;59.782;16.378;2022-12-18T12:06:14;9.97;;;5.70;;
10725;SDS011;5414;59.782;16.378;2022-12-18T12:11:15;10.10;;;6.10;;
10725;SDS011;5414;59.782;16.378;2022-12-18T12:13:47;9.67;;;4.10;;
10725;SDS011;5414;59.782;16.378;2022-12-18T12:21:25;11.37;;;4.70;;
10725;SDS011;5414;59.782;16.378;2022-12-18T12:29:42;15.90;;;9.67;;
10725;SDS011;5414;59.782;16.378;2022-12-18T12:32:16;11.47;;;5.80;;
10725;SDS011;5414;59.782;16.378;2022-12-18T12:37:43;9.80;;;4.33;;
10725;SDS011;5414;59.782;16.378;2022-12-18T12:40:29;7.30;;;3.70;;
10725;SDS011;5414;59.782;16.378;2022-12-18T12:43:02;11.40;;;5.50;;
10725;SDS011;5414;59.782;16.378;2022-12-18T12:46:20;8.87;;;5.03;;
10725;SDS011;5414;59.782;16.378;2022-12-18T12:51:26;6.43;;;4.00;;
10725;SDS011;5414;59.782;16.378;2022-12-18T12:53:53;12.07;;;5.17;;
10725;SDS011;5414;59.782;16.378;2022-12-18T12:56:20;22.77;;;11.33;;
10725;SDS011;5414;59.782;16.378;2022-12-18T13:03:56;11.20;;;4.53;;
10725;SDS011;5414;59.782;16.378;2022-12-18T13:09:02;7.00;;;3.30;;
10725;SDS011;5414;59.782;16.378;2022-12-18T13:11:38;5.27;;;3.33;;
10725;SDS011;5414;59.782;16.378;2022-12-18T13:14:28;10.53;;;3.77;;
10725;SDS011;5414;59.782;16.378;2022-12-18T13:19:39;8.80;;;3.37;;
10725;SDS011;5414;59.782;16.378;2022-12-18T13:22:12;17.73;;;10.13;;
10725;SDS011;5414;59.782;16.378;2022-12-18T13:24:45;7.23;;;2.70;;
10725;SDS011;5414;59.782;16.378;2022-12-18T13:29:57;8.70;;;3.37;;
10725;SDS011;5414;59.782;16.378;2022-12-18T13:32:24;8.83;;;4.10;;
10725;SDS011;5414;59.782;16.378;2022-12-18T13:37:45;8.83;;;3.70;;
10725;SDS011;5414;59.782;16.378;2022-12-18T13:43:02;7.07;;;2.63;;
10725;SDS011;5414;59.782;16.378;2022-12-18T13:48:10;8.80;;;3.97;;
10725;SDS011;5414;59.782;16.378;2022-12-18T13:50:40;4.77;;;2.40;;
10725;SDS011;5414;59.782;16.378;2022-12-18T13:53:06;6.23;;;3.80;;
10725;SDS011;5414;59.782;16.378;2022-12-18T13:55:32;10.63;;;4.57;;
10725;SDS011;5414;59.782;16.378;2022-12-18T13:58:04;4.90;;;3.03;;
10725;SDS011;5414;59.782;16.378;2022-12-18T14:00:31;9.97;;;3.73;;
10725;SDS011;5414;59.782;16.378;2022-12-18T14:02:57;9.57;;;3.00;;
10725;SDS011;5414;59.782;16.378;2022-12-18T14:05:33;6.87;;;2.53;;
10725;SDS011;5414;59.782;16.378;2022-12-18T14:08:10;6.30;;;2.60;;
10725;SDS011;5414;59.782;16.378;2022-12-18T14:10:55;10.37;;;2.93;;
10725;SDS011;5414;59.782;16.378;2022-12-18T14:13:31;7.37;;;2.40;;
10725;SDS011;5414;59.782;16.378;2022-12-18T14:16:00;7.13;;;2.60;;
10725;SDS011;5414;59.782;16.378;2022-12-18T14:21:19;6.87;;;2.53;;
10725;SDS011;5414;59.782;16.378;2022-12-18T14:23:46;9.33;;;2.20;;
10725;SDS011;5414;59.782;16.378;2022-12-18T14:26:47;4.93;;;2.33;;
10725;SDS011;5414;59.782;16.378;2022-12-18T14:29:39;4.77;;;1.90;;
10725;SDS011;5414;59.782;16.378;2022-12-18T14:34:33;5.90;;;2.10;;
10725;SDS011;5414;59.782;16.378;2022-12-18T14:36:59;10.67;;;4.77;;
10725;SDS011;5414;59.782;16.378;2022-12-18T14:39:25;12.20;;;4.10;;
10725;SDS011;5414;59.782;16.378;2022-12-18T14:41:51;28.77;;;16.33;;
10725;SDS011;5414;59.782;16.378;2022-12-18T14:44:18;27.77;;;13.57;;
10725;SDS011;5414;59.782;16.378;2022-12-18T14:46:46;25.17;;;13.30;;
10725;SDS011;5414;59.782;16.378;2022-12-18T14:49:22;9.00;;;4.20;;
10725;SDS011;5414;59.782;16.378;2022-12-18T14:51:53;10.27;;;5.93;;
10725;SDS011;5414;59.782;16.378;2022-12-18T14:54:19;7.03;;;2.17;;
10725;SDS011;5414;59.782;16.378;2022-12-18T14:56:47;5.83;;;2.30;;
10725;SDS011;5414;59.782;16.378;2022-12-18T14:59:19;9.33;;;3.27;;
10725;SDS011;5414;59.782;16.378;2022-12-18T15:02:10;15.13;;;10.00;;
10725;SDS011;5414;59.782;16.378;2022-12-18T15:09:29;12.60;;;6.13;;
10725;SDS011;5414;59.782;16.378;2022-12-18T15:11:59;12.80;;;5.03;;
10725;SDS011;5414;59.782;16.378;2022-12-18T15:14:37;10.93;;;4.07;;
10725;SDS011;5414;59.782;16.378;2022-12-18T15:17:15;5.53;;;1.73;;
10725;SDS011;5414;59.782;16.378;2022-12-18T15:19:43;15.50;;;10.57;;
10725;SDS011;5414;59.782;16.378;2022-12-18T15:24:45;8.37;;;3.00;;
10725;SDS011;5414;59.782;16.378;2022-12-18T15:32:45;8.43;;;3.97;;
10725;SDS011;5414;59.782;16.378;2022-12-18T15:35:16;7.47;;;2.60;;
10725;SDS011;5414;59.782;16.378;2022-12-18T15:37:42;15.60;;;10.03;;
10725;SDS011;5414;59.782;16.378;2022-12-18T15:40:12;14.43;;;8.47;;
10725;SDS011;5414;59.782;16.378;2022-12-18T15:42:39;16.70;;;12.97;;
10725;SDS011;5414;59.782;16.378;2022-12-18T15:45:23;35.60;;;31.87;;
10725;SDS011;5414;59.782;16.378;2022-12-18T15:47:49;11.23;;;6.63;;
10725;SDS011;5414;59.782;16.378;2022-12-18T15:50:15;9.67;;;6.03;;
10725;SDS011;5414;59.782;16.378;2022-12-18T15:52:43;25.67;;;23.07;;
10725;SDS011;5414;59.782;16.378;2022-12-18T15:55:12;22.37;;;20.03;;
10725;SDS011;5414;59.782;16.378;2022-12-18T15:57:58;15.80;;;10.00;;
10725;SDS011;5414;59.782;16.378;2022-12-18T16:00:24;11.50;;;7.17;;
10725;SDS011;5414;59.782;16.378;2022-12-18T16:02:50;7.60;;;1.97;;
10725;SDS011;5414;59.782;16.378;2022-12-18T16:05:16;4.17;;;1.60;;
10725;SDS011;5414;59.782;16.378;2022-12-18T16:07:43;17.77;;;13.67;;
10725;SDS011;5414;59.782;16.378;2022-12-18T16:10:09;11.97;;;7.10;;
10725;SDS011;5414;59.782;16.378;2022-12-18T16:12:35;12.30;;;4.47;;
10725;SDS011;5414;59.782;16.378;2022-12-18T16:15:02;9.40;;;4.13;;
10725;SDS011;5414;59.782;16.378;2022-12-18T16:17:28;6.13;;;2.27;;
10725;SDS011;5414;59.782;16.378;2022-12-18T16:19:54;9.87;;;5.53;;
10725;SDS011;5414;59.782;16.378;2022-12-18T16:22:21;5.87;;;1.90;;
10725;SDS011;5414;59.782;16.378;2022-12-18T16:24:47;12.77;;;5.87;;
10725;SDS011;5414;59.782;16.378;2022-12-18T16:27:14;5.50;;;1.60;;
10725;SDS011;5414;59.782;16.378;2022-12-18T16:29:40;6.67;;;2.60;;
10725;SDS011;5414;59.782;16.378;2022-12-18T16:32:06;11.77;;;7.97;;
10725;SDS011;5414;59.782;16.378;2022-12-18T16:34:32;7.00;;;2.13;;
10725;SDS011;5414;59.782;16.378;2022-12-18T16:37:03;13.27;;;8.17;;
10725;SDS011;5414;59.782;16.378;2022-12-18T16:39:29;8.60;;;3.63;;
10725;SDS011;5414;59.782;16.378;2022-12-18T16:41:56;7.57;;;2.27;;